createdAt,value
2022-08-12T00:02:02.928Z,18.70
2022-08-12T00:04:35.967Z,18.60
2022-08-12T00:07:19.333Z,18.60
2022-08-12T00:10:02.110Z,18.60
2022-08-12T00:12:44.941Z,18.50
2022-08-12T00:15:32.155Z,18.40
2022-08-12T00:18:15.032Z,18.50
2022-08-12T00:21:00.775Z,18.40
2022-08-12T00:23:43.536Z,18.20
2022-08-12T00:26:29.728Z,18.10
2022-08-12T00:29:12.449Z,18.20
2022-08-12T00:31:55.557Z,18.10
2022-08-12T00:34:38.325Z,18.00
2022-08-12T00:37:23.692Z,18.00
2022-08-12T00:40:10.814Z,18.00
2022-08-12T00:42:43.904Z,17.90
2022-08-12T00:45:14.307Z,17.90
2022-08-12T00:47:45.545Z,17.90
2022-08-12T00:50:20.606Z,17.80
2022-08-12T00:52:56.038Z,17.80
2022-08-12T00:55:26.466Z,17.70
2022-08-12T00:57:56.912Z,17.70
2022-08-12T01:00:28.840Z,17.70
2022-08-12T01:02:59.514Z,17.70
2022-08-12T01:05:42.539Z,17.60
2022-08-12T01:08:43.086Z,17.50
2022-08-12T01:11:28.258Z,17.60
2022-08-12T01:14:02.136Z,17.50
2022-08-12T01:16:32.732Z,17.40
2022-08-12T01:19:04.570Z,17.30
2022-08-12T01:22:19.377Z,17.40
2022-08-12T01:25:12.917Z,17.40
2022-08-12T01:27:44.407Z,17.30
2022-08-12T01:30:16.740Z,17.30
2022-08-12T01:32:51.401Z,17.30
2022-08-12T01:35:21.963Z,17.30
2022-08-12T01:38:02.817Z,17.20
2022-08-12T01:40:42.518Z,17.20
2022-08-12T01:43:22.810Z,17.20
2022-08-12T01:46:14.802Z,17.20
2022-08-12T01:49:07.620Z,17.10
2022-08-12T01:52:16.074Z,17.00
2022-08-12T01:54:39.543Z,17.00
2022-08-12T01:57:58.670Z,17.00
2022-08-12T02:00:15.162Z,17.00
2022-08-12T02:02:49.178Z,16.90
2022-08-12T02:05:46.690Z,16.90
2022-08-12T02:08:46.121Z,16.80
2022-08-12T02:11:24.179Z,16.80
2022-08-12T02:14:34.556Z,16.70
2022-08-12T02:17:55.716Z,16.60
2022-08-12T02:20:35.168Z,16.50
2022-08-12T02:23:27.232Z,16.50
2022-08-12T02:26:02.401Z,16.60
2022-08-12T02:28:33.837Z,16.60
2022-08-12T02:31:11.163Z,16.50
2022-08-12T02:33:42.319Z,16.50
2022-08-12T02:36:13.161Z,16.50
2022-08-12T02:38:46.212Z,16.40
2022-08-12T02:41:19.860Z,16.40
2022-08-12T02:43:54.925Z,16.40
2022-08-12T02:46:34.529Z,16.30
2022-08-12T02:49:14.885Z,16.30
2022-08-12T02:51:47.236Z,16.30
2022-08-12T02:54:17.876Z,16.20
2022-08-12T02:56:51.079Z,16.20
2022-08-12T02:59:26.437Z,16.20
2022-08-12T03:02:03.897Z,16.10
2022-08-12T03:04:43.646Z,16.00
2022-08-12T03:07:21.171Z,16.00
2022-08-12T03:10:04.848Z,16.10
2022-08-12T03:12:49.396Z,16.00
2022-08-12T03:15:24.874Z,16.00
2022-08-12T03:18:24.741Z,16.00
2022-08-12T03:20:59.729Z,16.00
2022-08-12T03:23:32.668Z,16.00
2022-08-12T03:26:05.832Z,16.00
2022-08-12T03:28:51.665Z,16.00
2022-08-12T03:31:25.127Z,16.00
2022-08-12T03:34:03.502Z,16.00
2022-08-12T03:36:36.795Z,15.90
2022-08-12T03:39:36.599Z,15.90
2022-08-12T03:42:22.643Z,15.90
2022-08-12T03:45:16.721Z,15.90
2022-08-12T03:48:07.756Z,15.90
2022-08-12T03:50:53.558Z,15.90
2022-08-12T03:53:42.590Z,15.90
2022-08-12T03:56:25.557Z,15.90
2022-08-12T03:59:10.955Z,15.90
2022-08-12T04:01:43.404Z,15.80
2022-08-12T04:04:16.999Z,15.90
2022-08-12T04:06:50.146Z,15.80
2022-08-12T04:09:24.245Z,15.80
2022-08-12T04:12:07.279Z,15.80
2022-08-12T04:14:38.724Z,15.80
2022-08-12T04:17:09.700Z,15.90
2022-08-12T04:19:40.636Z,15.80
2022-08-12T04:22:13.705Z,15.80
2022-08-12T04:24:47.705Z,15.80
2022-08-12T04:27:21.141Z,15.80
2022-08-12T04:30:30.099Z,15.80
2022-08-12T04:32:44.564Z,15.80
2022-08-12T04:35:16.166Z,15.90
2022-08-12T04:37:57.947Z,15.90
2022-08-12T04:40:33.924Z,15.90
2022-08-12T04:43:04.938Z,16.00
2022-08-12T04:45:37.715Z,16.00
2022-08-12T04:48:09.122Z,16.00
2022-08-12T04:50:39.426Z,16.10
2022-08-12T04:53:13.234Z,16.10
2022-08-12T04:55:46.851Z,16.20
2022-08-12T04:58:29.312Z,16.20
2022-08-12T05:01:01.220Z,16.20
2022-08-12T05:03:46.664Z,16.30
2022-08-12T05:06:27.102Z,16.40
2022-08-12T05:09:02.149Z,16.50
2022-08-12T05:11:54.102Z,16.60
2022-08-12T05:14:25.302Z,16.60
2022-08-12T05:16:55.666Z,16.70
2022-08-12T05:19:26.933Z,16.90
2022-08-12T05:21:57.329Z,17.00
2022-08-12T05:24:30.566Z,17.10
2022-08-12T05:27:00.964Z,17.20
2022-08-12T05:30:06.468Z,17.30
2022-08-12T05:32:26.337Z,17.40
2022-08-12T05:34:56.743Z,17.60
2022-08-12T05:37:27.332Z,17.70
2022-08-12T05:40:00.725Z,17.90
2022-08-12T05:42:41.140Z,18.10
2022-08-12T05:45:13.847Z,18.10
2022-08-12T05:47:54.010Z,18.30
2022-08-12T05:50:25.878Z,18.40
2022-08-12T05:52:57.313Z,18.60
2022-08-12T05:55:31.721Z,18.90
2022-08-12T05:58:03.257Z,19.10
2022-08-12T06:00:34.654Z,19.20
2022-08-12T06:03:07.161Z,19.30
2022-08-12T06:05:54.299Z,19.50
2022-08-12T06:08:26.669Z,19.60
2022-08-12T06:11:01.996Z,19.80
2022-08-12T06:13:52.851Z,19.90
2022-08-12T06:16:27.496Z,20.00
2022-08-12T06:18:57.967Z,20.30
2022-08-12T06:21:28.826Z,20.30
2022-08-12T06:23:59.193Z,20.40
2022-08-12T06:26:34.701Z,20.60
2022-08-12T06:29:05.346Z,20.80
2022-08-12T06:31:35.685Z,21.00
2022-08-12T06:35:25.702Z,21.20
2022-08-12T06:36:56.550Z,21.30
2022-08-12T06:39:27.139Z,21.40
2022-08-12T06:42:42.234Z,21.60
2022-08-12T06:45:02.810Z,22.00
2022-08-12T06:47:33.240Z,22.10
2022-08-12T06:50:04.107Z,22.40
2022-08-12T06:52:34.455Z,22.70
2022-08-12T06:55:04.831Z,22.60
2022-08-12T06:58:05.663Z,22.70
2022-08-12T07:00:39.268Z,23.10
2022-08-12T07:03:22.741Z,23.30
2022-08-12T07:05:53.967Z,23.40
2022-08-12T07:08:26.917Z,23.20
2022-08-12T07:11:00.300Z,23.30
2022-08-12T07:13:36.085Z,23.60
2022-08-12T07:16:27.084Z,23.80
2022-08-12T07:18:59.198Z,24.10
2022-08-12T07:22:00.035Z,24.20
2022-08-12T07:24:24.565Z,24.30
2022-08-12T07:26:55.876Z,24.50
2022-08-12T07:30:02.578Z,24.50
2022-08-12T07:32:23.827Z,24.70
2022-08-12T07:34:54.820Z,24.80
2022-08-12T07:37:25.200Z,24.80
2022-08-12T07:40:00.330Z,24.90
2022-08-12T07:42:32.462Z,24.90
2022-08-12T07:45:07.516Z,25.00
2022-08-12T07:47:38.115Z,25.10
2022-08-12T07:50:10.904Z,25.10
2022-08-12T07:52:44.059Z,25.30
2022-08-12T07:55:19.318Z,25.40
2022-08-12T07:57:58.055Z,25.40
2022-08-12T08:00:34.420Z,25.50
2022-08-12T08:03:05.182Z,25.60
2022-08-12T08:05:40.201Z,25.50
2022-08-12T08:08:18.196Z,25.70
2022-08-12T08:10:49.240Z,25.80
2022-08-12T08:13:17.647Z,25.90
2022-08-12T08:16:03.535Z,25.90
2022-08-12T08:18:34.362Z,26.00
2022-08-12T08:21:04.765Z,26.00
2022-08-12T08:23:56.329Z,26.00
2022-08-12T08:26:28.567Z,26.00
2022-08-12T08:28:59.760Z,26.10
2022-08-12T08:31:32.853Z,26.20
2022-08-12T08:34:27.725Z,26.20
2022-08-12T08:36:54.280Z,26.20
2022-08-12T08:39:28.133Z,26.30
2022-08-12T08:42:19.188Z,26.20
2022-08-12T08:44:58.134Z,26.20
2022-08-12T08:47:31.516Z,26.20
2022-08-12T08:50:03.378Z,26.30
2022-08-12T08:52:40.276Z,26.50
2022-08-12T08:55:14.145Z,26.50
2022-08-12T08:57:47.792Z,26.50
2022-08-12T09:00:19.932Z,26.30
2022-08-12T09:02:58.570Z,26.50
2022-08-12T09:06:01.686Z,26.50
2022-08-12T09:12:11.504Z,26.40
2022-08-12T09:14:31.405Z,26.50
2022-08-12T09:17:03.093Z,26.70
2022-08-12T09:19:37.341Z,26.50
2022-08-12T09:22:11.060Z,26.80
2022-08-12T09:24:48.864Z,26.70
2022-08-12T09:27:23.416Z,26.90
2022-08-12T09:30:16.237Z,26.70
2022-08-12T09:33:04.520Z,26.70
2022-08-12T09:35:44.474Z,26.70
2022-08-12T09:38:28.393Z,26.80
2022-08-12T09:42:34.137Z,27.00
2022-08-12T09:44:05.521Z,27.00
2022-08-12T09:46:36.637Z,27.10
2022-08-12T09:49:16.244Z,26.90
2022-08-12T09:51:50.494Z,26.90
2022-08-12T09:54:33.597Z,27.00
2022-08-12T09:58:46.158Z,27.10
2022-08-12T10:00:15.194Z,27.30
2022-08-12T10:03:05.961Z,27.30
2022-08-12T10:06:19.559Z,27.20
2022-08-12T10:08:39.164Z,27.40
2022-08-12T10:11:23.274Z,27.30
2022-08-12T10:13:57.308Z,27.30
2022-08-12T10:16:38.739Z,27.30
2022-08-12T10:19:17.199Z,27.30
2022-08-12T10:21:48.508Z,27.40
2022-08-12T10:24:30.198Z,27.40
2022-08-12T10:27:14.372Z,27.40
2022-08-12T10:30:03.017Z,27.40
2022-08-12T10:32:44.312Z,27.40
2022-08-12T10:35:18.506Z,27.60
2022-08-12T10:38:38.403Z,27.50
2022-08-12T10:41:04.054Z,27.20
2022-08-12T10:43:54.527Z,27.40
2022-08-12T10:46:31.165Z,27.10
2022-08-12T10:49:06.840Z,26.90
2022-08-12T10:52:32.601Z,27.10
2022-08-12T10:54:49.300Z,27.30
2022-08-12T10:58:15.560Z,27.40
2022-08-12T11:00:33.788Z,27.30
2022-08-12T11:04:19.382Z,27.30
2022-08-12T11:07:06.015Z,27.50
2022-08-12T11:08:51.276Z,27.80
2022-08-12T11:12:08.492Z,27.70
2022-08-12T11:14:49.288Z,27.70
2022-08-12T11:17:43.515Z,27.60
2022-08-12T11:20:14.909Z,27.40
2022-08-12T11:22:49.406Z,27.30
2022-08-12T11:25:55.677Z,27.30
2022-08-12T11:28:33.498Z,27.30
2022-08-12T11:31:12.326Z,27.40
2022-08-12T11:34:05.327Z,27.50
2022-08-12T11:36:39.118Z,27.50
2022-08-12T11:39:12.418Z,27.60
2022-08-12T11:41:43.218Z,27.60
2022-08-12T11:44:37.098Z,27.40
2022-08-12T11:47:10.831Z,27.30
2022-08-12T11:49:41.372Z,27.50
2022-08-12T11:52:51.375Z,27.50
2022-08-12T11:55:14.805Z,27.40
2022-08-12T11:58:17.295Z,27.50
2022-08-12T12:03:44.241Z,27.60
2022-08-12T12:06:18.072Z,27.60
2022-08-12T12:08:52.966Z,27.50
2022-08-12T12:11:25.335Z,27.80
2022-08-12T12:14:06.630Z,27.80
2022-08-12T12:16:40.033Z,28.00
2022-08-12T12:19:15.206Z,28.00
2022-08-12T12:21:47.508Z,27.90
2022-08-12T12:24:22.467Z,28.10
2022-08-12T12:26:59.530Z,28.00
2022-08-12T12:30:17.928Z,28.10
2022-08-12T12:32:28.829Z,28.20
2022-08-12T12:35:13.890Z,28.10
2022-08-12T12:38:05.539Z,27.80
2022-08-12T12:40:46.197Z,27.60
2022-08-12T12:43:29.081Z,27.50
2022-08-12T12:46:12.465Z,27.40
2022-08-12T12:48:44.678Z,27.50
2022-08-12T12:51:48.142Z,27.50
2022-08-12T12:54:11.461Z,27.50
2022-08-12T12:56:47.976Z,27.40
2022-08-12T12:59:54.996Z,27.30
2022-08-12T13:02:11.214Z,27.30
2022-08-12T13:04:41.936Z,27.20
2022-08-12T13:07:19.202Z,27.20
2022-08-12T13:09:49.972Z,27.20
2022-08-12T13:12:20.716Z,27.30
2022-08-12T13:14:51.674Z,27.40
2022-08-12T13:17:22.141Z,27.50
2022-08-12T13:19:55.627Z,27.60
2022-08-12T13:22:30.378Z,27.80
2022-08-12T13:25:01.966Z,28.00
2022-08-12T13:27:42.604Z,28.10
2022-08-12T13:30:24.803Z,28.20
2022-08-12T13:32:59.020Z,28.20
2022-08-12T13:36:02.912Z,28.10
2022-08-12T13:38:34.244Z,28.00
2022-08-12T13:41:11.752Z,27.90
2022-08-12T13:43:42.444Z,27.80
2022-08-12T13:46:17.817Z,27.80
2022-08-12T13:48:48.697Z,27.90
2022-08-12T13:51:24.205Z,27.90
2022-08-12T13:54:04.158Z,27.80
2022-08-12T13:56:38.543Z,27.60
2022-08-12T13:59:11.557Z,27.50
2022-08-12T14:01:42.397Z,27.60
2022-08-12T14:04:13.395Z,27.80
2022-08-12T14:06:44.942Z,27.90
2022-08-12T14:09:19.980Z,28.00
2022-08-12T14:11:59.454Z,28.10
2022-08-12T14:14:35.764Z,28.00
2022-08-12T14:17:10.417Z,27.70
2022-08-12T14:20:01.378Z,27.70
2022-08-12T14:22:32.195Z,27.70
2022-08-12T14:25:06.297Z,27.80
2022-08-12T14:28:03.732Z,27.90
2022-08-12T14:30:29.375Z,28.10
2022-08-12T14:33:03.038Z,28.20
2022-08-12T14:35:41.363Z,28.30
2022-08-12T14:38:26.156Z,28.30
2022-08-12T14:41:01.841Z,28.30
2022-08-12T14:43:58.939Z,28.30
2022-08-12T14:46:28.016Z,28.40
2022-08-12T14:48:58.523Z,28.50
2022-08-12T14:52:44.083Z,28.60
2022-08-12T14:57:44.897Z,28.70
2022-08-12T15:00:29.881Z,28.70
2022-08-12T15:03:00.292Z,28.40
2022-08-12T15:06:06.122Z,28.40
2022-08-12T15:08:33.575Z,28.50
2022-08-12T15:11:05.664Z,28.60
2022-08-12T15:13:45.723Z,28.50
2022-08-12T15:16:18.667Z,28.50
2022-08-12T15:18:55.030Z,28.40
2022-08-12T15:22:36.795Z,28.20
2022-08-12T15:24:20.532Z,28.10
2022-08-12T15:26:51.613Z,28.00
2022-08-12T15:29:26.417Z,27.90
2022-08-12T15:32:02.002Z,27.80
2022-08-12T15:34:38.961Z,27.80
2022-08-12T15:37:09.368Z,27.70
2022-08-12T15:39:39.852Z,27.60
2022-08-12T15:42:30.038Z,27.50
2022-08-12T15:45:03.422Z,27.40
2022-08-12T15:47:49.541Z,27.40
2022-08-12T15:50:26.371Z,27.40
2022-08-12T15:52:58.844Z,27.40
2022-08-12T15:55:46.235Z,27.40
2022-08-12T15:58:17.495Z,27.50
2022-08-12T16:00:52.789Z,27.40
2022-08-12T16:03:45.342Z,27.50
2022-08-12T16:06:36.289Z,27.40
2022-08-12T16:09:21.618Z,27.40
2022-08-12T16:11:52.339Z,27.30
2022-08-12T16:14:22.696Z,27.20
2022-08-12T16:16:57.901Z,27.10
2022-08-12T16:20:04.068Z,27.10
2022-08-12T16:22:21.486Z,27.20
2022-08-12T16:24:56.215Z,27.10
2022-08-12T16:27:29.813Z,27.10
2022-08-12T16:30:10.913Z,27.10
2022-08-12T16:32:46.466Z,27.00
2022-08-12T16:35:24.286Z,27.10
2022-08-12T16:38:28.234Z,27.10
2022-08-12T16:40:54.434Z,26.90
2022-08-12T16:43:28.153Z,27.00
2022-08-12T16:46:05.661Z,27.00
2022-08-12T16:48:55.860Z,27.00
2022-08-12T16:51:26.827Z,27.00
2022-08-12T16:53:57.436Z,27.10
2022-08-12T16:56:31.988Z,27.00
2022-08-12T16:59:02.851Z,27.10
2022-08-12T17:01:46.456Z,27.10
2022-08-12T17:04:20.342Z,27.00
2022-08-12T17:06:55.083Z,27.10
2022-08-12T17:09:26.310Z,27.00
2022-08-12T17:12:11.617Z,27.00
2022-08-12T17:14:42.439Z,27.00
2022-08-12T17:17:26.345Z,26.90
2022-08-12T17:20:34.599Z,26.80
2022-08-12T17:23:09.769Z,26.80
2022-08-12T17:25:48.328Z,26.80
2022-08-12T17:28:20.331Z,26.80
2022-08-12T17:30:59.573Z,26.80
2022-08-12T17:33:33.275Z,26.70
2022-08-12T17:36:10.639Z,26.70
2022-08-12T17:38:41.709Z,26.70
2022-08-12T17:41:22.732Z,26.70
2022-08-12T17:43:58.307Z,26.70
2022-08-12T17:46:33.570Z,26.70
2022-08-12T17:49:06.533Z,26.60
2022-08-12T17:52:02.217Z,26.60
2022-08-12T17:54:34.677Z,26.60
2022-08-12T17:57:16.142Z,26.50
2022-08-12T17:59:49.540Z,26.50
2022-08-12T18:02:29.772Z,26.50
2022-08-12T18:05:10.040Z,26.40
2022-08-12T18:07:44.906Z,26.40
2022-08-12T18:10:42.996Z,26.30
2022-08-12T18:13:12.911Z,26.20
2022-08-12T18:16:06.740Z,26.20
2022-08-12T18:18:39.334Z,26.10
2022-08-12T18:21:12.379Z,26.10
2022-08-12T18:23:53.603Z,26.00
2022-08-12T18:26:27.265Z,25.90
2022-08-12T18:28:59.015Z,25.90
2022-08-12T18:31:44.530Z,25.80
2022-08-12T18:34:24.725Z,25.70
2022-08-12T18:36:59.749Z,25.60
2022-08-12T18:40:06.079Z,25.50
2022-08-12T18:42:36.475Z,25.40
2022-08-12T18:45:12.109Z,25.30
2022-08-12T18:47:49.871Z,25.20
2022-08-12T18:50:24.755Z,25.20
2022-08-12T18:52:56.875Z,25.10
2022-08-12T18:55:37.441Z,25.10
2022-08-12T18:58:10.103Z,25.00
2022-08-12T19:00:43.296Z,25.00
2022-08-12T19:03:38.616Z,24.90
2022-08-12T19:06:09.142Z,24.80
2022-08-12T19:08:49.495Z,24.70
2022-08-12T19:11:36.191Z,24.60
2022-08-12T19:14:20.697Z,24.50
2022-08-12T19:16:52.757Z,24.50
2022-08-12T19:19:23.220Z,24.40
2022-08-12T19:21:57.004Z,24.30
2022-08-12T19:24:41.799Z,24.30
2022-08-12T19:27:15.957Z,24.20
2022-08-12T19:30:06.535Z,24.10
2022-08-12T19:32:37.939Z,24.00
2022-08-12T19:38:07.286Z,24.00
2022-08-12T19:40:39.558Z,23.90
2022-08-12T19:43:20.961Z,23.90
2022-08-12T19:45:56.659Z,23.90
2022-08-12T19:48:32.635Z,23.70
2022-08-12T19:51:09.293Z,23.70
2022-08-12T19:53:58.078Z,23.70
2022-08-12T19:56:30.311Z,23.70
2022-08-12T19:59:18.679Z,23.70
2022-08-12T20:02:02.871Z,23.60
2022-08-12T20:04:37.731Z,23.60
2022-08-12T20:07:12.605Z,23.60
2022-08-12T20:09:56.929Z,23.60
2022-08-12T20:12:32.619Z,23.50
2022-08-12T20:15:11.233Z,23.40
2022-08-12T20:17:50.738Z,23.40
2022-08-12T20:20:27.794Z,23.40
2022-08-12T20:22:58.910Z,23.30
2022-08-12T20:25:52.682Z,23.30
2022-08-12T20:28:21.652Z,23.20
2022-08-12T20:31:00.011Z,23.20
2022-08-12T20:33:50.200Z,23.20
2022-08-12T20:36:41.552Z,23.10
2022-08-12T20:39:33.955Z,23.10
2022-08-12T20:42:07.823Z,23.10
2022-08-12T20:44:40.594Z,23.00
2022-08-12T20:47:19.627Z,23.00
2022-08-12T20:49:54.821Z,22.90
2022-08-12T20:52:30.220Z,22.90
2022-08-12T20:55:00.767Z,22.80
2022-08-12T20:57:38.272Z,22.80
2022-08-12T21:00:28.469Z,22.70
2022-08-12T21:03:21.649Z,22.60
2022-08-12T21:06:13.047Z,22.60
2022-08-12T21:08:44.374Z,22.50
2022-08-12T21:11:15.067Z,22.50
2022-08-12T21:13:47.216Z,22.40
2022-08-12T21:16:31.497Z,22.40
2022-08-12T21:19:11.820Z,22.40
2022-08-12T21:21:58.845Z,22.30
2022-08-12T21:24:32.301Z,22.30
2022-08-12T21:27:07.379Z,22.20
2022-08-12T21:29:40.100Z,22.10
2022-08-12T21:32:36.839Z,22.00
2022-08-12T21:35:19.042Z,21.90
2022-08-12T21:37:53.314Z,21.80
2022-08-12T21:40:37.419Z,21.90
2022-08-12T21:43:15.953Z,21.90
2022-08-12T21:46:00.909Z,21.90
2022-08-12T21:48:32.015Z,21.90
2022-08-12T21:51:22.588Z,21.80
2022-08-12T21:54:07.507Z,21.80
2022-08-12T21:56:41.168Z,21.70
2022-08-12T21:59:14.541Z,21.70
2022-08-12T22:01:48.994Z,21.70
2022-08-12T22:04:33.522Z,21.70
2022-08-12T22:07:07.971Z,21.70
2022-08-12T22:09:43.235Z,21.60
2022-08-12T22:12:26.832Z,21.60
2022-08-12T22:14:57.606Z,21.50
2022-08-12T22:17:49.907Z,21.50
2022-08-12T22:20:29.442Z,21.40
2022-08-12T22:23:05.405Z,21.40
2022-08-12T22:25:40.058Z,21.40
2022-08-12T22:28:24.639Z,21.30
2022-08-12T22:31:07.584Z,21.20
2022-08-12T22:33:53.907Z,21.20
2022-08-12T22:36:29.320Z,21.20
2022-08-12T22:39:02.732Z,21.10
2022-08-12T22:41:45.746Z,21.10
2022-08-12T22:44:28.450Z,21.00
2022-08-12T22:47:12.218Z,20.90
2022-08-12T22:49:53.611Z,20.90
2022-08-12T22:52:30.748Z,20.80
2022-08-12T22:55:06.383Z,20.80
2022-08-12T22:57:49.737Z,20.70
2022-08-12T23:00:27.916Z,20.60
2022-08-12T23:03:02.775Z,20.50
2022-08-12T23:06:09.624Z,20.60
2022-08-12T23:08:32.068Z,20.50
2022-08-12T23:11:08.505Z,20.50
2022-08-12T23:13:57.173Z,20.50
2022-08-12T23:16:33.383Z,20.50
2022-08-12T23:19:11.071Z,20.40
2022-08-12T23:22:05.858Z,20.40
2022-08-12T23:24:56.093Z,20.30
2022-08-12T23:27:50.255Z,20.30
2022-08-12T23:30:25.079Z,20.30
2022-08-12T23:33:01.919Z,20.30
2022-08-12T23:35:45.844Z,20.20
2022-08-12T23:38:30.888Z,20.20
2022-08-12T23:41:03.899Z,20.10
2022-08-12T23:43:43.407Z,20.00
2022-08-12T23:46:22.605Z,20.00
2022-08-12T23:49:01.025Z,20.10
2022-08-12T23:51:32.294Z,20.00
2022-08-12T23:54:10.160Z,20.00
2022-08-12T23:56:48.808Z,20.00
2022-08-12T23:59:22.885Z,20.00
